Terminal Aerodrome Forecast
Issued by NWS Quad Cities IA IL

Home | Current Version | Previous Version | Text Only | Print | Product List | Glossary On
Versions: 1 2 3 4 5 6 7 8 9 10 11 12 13 14 15 16 17 18 19 20 21 22 23
986
FTUS43 KDVN 231142
TAFMLI
TAF
KMLI 231142Z 2312/2412 13012G18KT P6SM OVC090
     FM231700 14013G20KT P6SM VCSH OVC035
     FM240000 15012KT P6SM BKN040 OVC200=

USA.gov is the U.S. government's official web portal to all federal, state and local government web resources and services.